createdAt,value
2018-09-26T00:02:08.698Z,69.63
2018-09-26T00:04:48.504Z,68.61
2018-09-26T00:07:18.308Z,68.35
2018-09-26T00:09:48.090Z,68.67
2018-09-26T00:12:17.920Z,68.93
2018-09-26T00:14:47.660Z,68.79
2018-09-26T00:17:17.456Z,69.50
2018-09-26T00:19:47.204Z,70.33
2018-09-26T00:22:17.000Z,70.54
2018-09-26T00:24:46.752Z,70.56
2018-09-26T00:27:16.520Z,70.71
2018-09-26T00:29:46.293Z,71.02
2018-09-26T00:32:16.070Z,70.65
2018-09-26T00:34:45.854Z,70.44
2018-09-26T00:37:15.633Z,70.67
2018-09-26T00:39:45.582Z,72.10
2018-09-26T00:42:15.383Z,73.03
2018-09-26T00:44:45.155Z,72.96
2018-09-26T00:47:14.938Z,73.31
2018-09-26T00:49:44.746Z,73.75
2018-09-26T00:52:14.482Z,73.20
2018-09-26T00:54:44.232Z,73.83
2018-09-26T00:57:14.047Z,73.34
2018-09-26T00:59:43.773Z,72.99
2018-09-26T01:02:13.546Z,72.62
2018-09-26T01:04:43.340Z,72.46
2018-09-26T01:07:13.112Z,72.48
2018-09-26T01:09:42.903Z,72.01
2018-09-26T01:12:12.688Z,72.50
2018-09-26T01:14:42.855Z,72.35
2018-09-26T01:17:12.826Z,72.87
2018-09-26T01:19:42.540Z,73.28
2018-09-26T01:22:12.330Z,74.08
2018-09-26T01:24:42.142Z,74.24
2018-09-26T01:27:11.962Z,75.06
2018-09-26T01:29:41.687Z,74.91
2018-09-26T01:32:11.452Z,74.61
2018-09-26T01:34:41.216Z,75.39
2018-09-26T01:37:10.979Z,75.18
2018-09-26T01:39:40.743Z,75.21
2018-09-26T01:42:10.519Z,75.11
2018-09-26T01:44:40.271Z,75.67
2018-09-26T01:47:10.003Z,75.07
2018-09-26T01:49:39.849Z,74.79
2018-09-26T01:52:09.619Z,74.71
2018-09-26T01:54:39.459Z,74.53
2018-09-26T01:57:09.232Z,74.39
2018-09-26T01:59:38.978Z,74.01
2018-09-26T02:02:08.735Z,74.24
2018-09-26T02:04:38.507Z,75.16
2018-09-26T02:07:08.353Z,75.21
2018-09-26T02:09:38.111Z,75.10
2018-09-26T02:12:08.715Z,75.09
2018-09-26T02:14:38.463Z,74.44
2018-09-26T02:17:08.253Z,74.19
2018-09-26T02:19:38.003Z,74.03
2018-09-26T02:22:07.765Z,74.34
2018-09-26T02:24:37.621Z,74.18
2018-09-26T02:27:07.488Z,73.81
2018-09-26T02:29:37.257Z,73.95
2018-09-26T02:32:07.119Z,73.49
2018-09-26T02:34:36.887Z,73.16
2018-09-26T02:37:09.120Z,73.60
2018-09-26T02:39:39.958Z,73.33
2018-09-26T02:42:09.781Z,73.97
2018-09-26T02:44:39.515Z,74.01
2018-09-26T02:47:09.635Z,73.32
2018-09-26T02:49:39.410Z,73.71
2018-09-26T02:52:09.265Z,73.87
2018-09-26T02:54:39.027Z,74.09
2018-09-26T02:57:08.973Z,73.41
2018-09-26T02:59:38.696Z,73.80
2018-09-26T03:02:08.685Z,74.15
2018-09-26T03:04:38.491Z,75.13
2018-09-26T03:07:08.332Z,74.54
2018-09-26T03:09:38.108Z,74.52
2018-09-26T03:12:08.121Z,74.80
2018-09-26T03:14:37.913Z,74.13
2018-09-26T03:17:07.813Z,73.96
2018-09-26T03:19:37.657Z,74.30
2018-09-26T03:22:07.485Z,73.88
2018-09-26T03:24:37.274Z,73.54
2018-09-26T03:27:07.082Z,73.51
2018-09-26T03:29:36.893Z,73.68
2018-09-26T03:32:06.710Z,73.25
2018-09-26T03:34:36.561Z,72.90
2018-09-26T03:37:06.595Z,73.91
2018-09-26T03:39:36.387Z,74.17
2018-09-26T03:42:06.360Z,74.55
2018-09-26T03:44:36.105Z,74.30
2018-09-26T03:47:05.878Z,74.49
2018-09-26T03:49:35.634Z,74.49
2018-09-26T03:52:05.389Z,74.64
2018-09-26T03:54:35.155Z,74.58
2018-09-26T03:57:05.064Z,74.53
2018-09-26T03:59:35.711Z,74.60
2018-09-26T04:02:05.557Z,74.53
2018-09-26T04:04:35.423Z,74.04
2018-09-26T04:07:05.265Z,74.82
2018-09-26T04:09:35.014Z,74.64
2018-09-26T04:12:04.785Z,74.70
2018-09-26T04:14:34.562Z,74.66
2018-09-26T04:17:04.492Z,74.72
2018-09-26T04:19:34.319Z,74.32
2018-09-26T04:22:04.216Z,74.07
2018-09-26T04:24:33.961Z,74.02
2018-09-26T04:27:03.851Z,73.92
2018-09-26T04:29:33.763Z,73.46
2018-09-26T04:32:03.710Z,73.26
2018-09-26T04:34:33.483Z,73.33
2018-09-26T04:37:03.359Z,73.47
2018-09-26T04:39:33.166Z,72.73
2018-09-26T04:42:03.063Z,74.42
2018-09-26T04:44:32.826Z,74.63
2018-09-26T04:47:02.607Z,74.84
2018-09-26T04:49:32.334Z,74.62
2018-09-26T04:52:02.374Z,75.00
2018-09-26T04:54:32.144Z,74.84
2018-09-26T04:57:01.872Z,74.81
2018-09-26T04:59:31.650Z,74.86
2018-09-26T05:02:01.764Z,75.25
2018-09-26T05:04:31.499Z,74.84
2018-09-26T05:07:01.272Z,75.33
2018-09-26T05:09:31.026Z,75.21
2018-09-26T05:12:00.818Z,75.90
2018-09-26T05:14:30.597Z,76.15
2018-09-26T05:17:00.352Z,76.07
2018-09-26T05:19:30.156Z,76.45
2018-09-26T05:21:59.900Z,76.26
2018-09-26T05:24:29.626Z,77.56
2018-09-26T05:26:59.394Z,77.49
2018-09-26T05:29:29.164Z,77.21
2018-09-26T05:31:58.924Z,77.14
2018-09-26T05:34:28.826Z,77.38
2018-09-26T05:36:58.612Z,77.58
2018-09-26T05:39:28.450Z,77.21
2018-09-26T05:41:58.206Z,77.35
2018-09-26T05:44:27.936Z,77.64
2018-09-26T05:46:57.744Z,77.51
2018-09-26T05:49:27.532Z,77.39
2018-09-26T05:51:57.273Z,77.06
2018-09-26T05:54:27.020Z,76.56
2018-09-26T05:56:56.810Z,76.54
2018-09-26T05:59:26.755Z,76.80
2018-09-26T06:01:56.728Z,75.99
2018-09-26T06:04:26.502Z,76.05
2018-09-26T06:06:56.288Z,76.21
2018-09-26T06:09:26.118Z,75.27
2018-09-26T06:11:55.859Z,76.00
2018-09-26T06:14:25.797Z,75.97
2018-09-26T06:16:55.530Z,75.93
2018-09-26T06:19:25.768Z,76.34
2018-09-26T06:21:55.508Z,76.56
2018-09-26T06:24:25.306Z,76.56
2018-09-26T06:26:55.252Z,76.55
2018-09-26T06:29:25.238Z,75.63
2018-09-26T06:31:55.126Z,75.37
2018-09-26T06:34:24.841Z,75.40
2018-09-26T06:36:54.554Z,75.35
2018-09-26T06:39:24.325Z,74.60
2018-09-26T06:41:54.186Z,74.17
2018-09-26T06:44:24.028Z,74.15
2018-09-26T06:46:54.044Z,73.59
2018-09-26T06:49:23.835Z,73.58
2018-09-26T06:51:53.596Z,73.16
2018-09-26T06:54:23.364Z,73.00
2018-09-26T06:56:53.256Z,73.10
2018-09-26T06:59:23.026Z,73.49
2018-09-26T07:01:52.776Z,73.19
2018-09-26T07:04:22.527Z,69.64
2018-09-26T07:06:52.299Z,66.49
2018-09-26T07:09:22.043Z,62.30
2018-09-26T07:11:51.878Z,59.51
2018-09-26T07:15:50.998Z,58.93
2018-09-26T07:18:20.788Z,57.61
2018-09-26T07:20:50.551Z,57.16
2018-09-26T07:23:20.361Z,53.05
2018-09-26T07:25:50.302Z,48.53
2018-09-26T07:28:20.095Z,45.20
2018-09-26T07:30:49.861Z,41.26
2018-09-26T07:33:19.631Z,38.62
2018-09-26T07:35:49.397Z,36.94
2018-09-26T07:38:19.755Z,36.24
2018-09-26T07:40:50.495Z,34.28
2018-09-26T07:43:21.091Z,34.47
2018-09-26T07:45:51.821Z,34.31
2018-09-26T07:48:22.369Z,33.22
2018-09-26T07:50:52.838Z,33.53
2018-09-26T07:53:23.153Z,34.10
2018-09-26T07:55:53.475Z,33.88
2018-09-26T07:58:23.751Z,33.88
2018-09-26T08:00:54.091Z,33.20
2018-09-26T08:03:24.412Z,34.57
2018-09-26T08:05:54.776Z,35.56
2018-09-26T08:08:25.243Z,36.26
2018-09-26T08:10:55.591Z,38.02
2018-09-26T08:13:25.916Z,39.18
2018-09-26T08:15:56.261Z,40.53
2018-09-26T08:18:26.597Z,42.25
2018-09-26T08:20:56.590Z,44.62
2018-09-26T08:23:26.374Z,46.71
2018-09-26T08:25:56.142Z,49.14
2018-09-26T08:28:25.920Z,50.47
2018-09-26T08:30:55.686Z,53.44
2018-09-26T08:33:25.478Z,54.00
2018-09-26T08:35:55.250Z,55.86
2018-09-26T08:38:25.028Z,55.29
2018-09-26T08:40:54.907Z,55.45
2018-09-26T08:43:25.050Z,55.15
2018-09-26T08:45:54.831Z,56.86
2018-09-26T08:48:24.611Z,58.28
2018-09-26T08:50:54.379Z,57.44
2018-09-26T08:53:24.253Z,57.83
2018-09-26T08:55:54.086Z,56.81
2018-09-26T08:58:23.825Z,56.89
2018-09-26T09:00:54.757Z,55.74
2018-09-26T09:03:24.502Z,56.23
2018-09-26T09:05:54.351Z,55.44
2018-09-26T09:08:24.071Z,56.24
2018-09-26T09:10:53.843Z,56.04
2018-09-26T09:13:23.589Z,54.96
2018-09-26T09:15:53.361Z,54.71
2018-09-26T09:18:23.141Z,56.67
2018-09-26T09:20:52.905Z,55.65
2018-09-26T09:23:22.646Z,53.15
2018-09-26T09:25:52.395Z,53.91
2018-09-26T09:28:22.143Z,54.71
2018-09-26T09:30:52.570Z,53.15
2018-09-26T09:33:22.314Z,52.98
2018-09-26T09:35:52.046Z,51.55
2018-09-26T09:38:21.798Z,51.68
2018-09-26T09:40:51.776Z,52.57
2018-09-26T09:43:21.926Z,52.75
2018-09-26T09:45:51.829Z,51.25
2018-09-26T09:48:21.654Z,53.61
2018-09-26T09:50:51.402Z,52.55
2018-09-26T09:53:21.288Z,52.38
2018-09-26T09:55:52.233Z,53.06
2018-09-26T09:58:22.620Z,52.42
2018-09-26T10:00:57.578Z,51.50
2018-09-26T10:03:27.350Z,51.02
2018-09-26T10:05:57.136Z,53.21
2018-09-26T10:08:26.892Z,53.29
2018-09-26T10:10:56.632Z,52.27
2018-09-26T10:13:26.404Z,51.45
2018-09-26T10:15:56.182Z,51.63
2018-09-26T10:18:25.994Z,51.26
2018-09-26T10:20:55.632Z,51.19
2018-09-26T10:23:25.720Z,52.83
2018-09-26T10:25:55.398Z,51.06
2018-09-26T10:28:25.089Z,52.33
2018-09-26T10:30:54.710Z,52.02
2018-09-26T10:33:24.366Z,50.07
2018-09-26T10:35:54.170Z,50.00
2018-09-26T10:38:23.905Z,49.88
2018-09-26T10:40:54.033Z,48.83
2018-09-26T10:43:23.923Z,51.09
2018-09-26T10:45:53.636Z,51.10
2018-09-26T10:48:23.295Z,50.20
2018-09-26T10:50:52.973Z,50.25
2018-09-26T10:53:22.886Z,48.72
2018-09-26T10:55:52.543Z,48.13
2018-09-26T10:58:22.305Z,47.55
2018-09-26T11:00:52.036Z,48.35
2018-09-26T11:03:21.739Z,48.00
2018-09-26T11:05:51.415Z,49.09
2018-09-26T11:08:21.188Z,48.17
2018-09-26T11:10:51.119Z,46.72
2018-09-26T11:13:21.760Z,47.66
2018-09-26T11:15:51.486Z,50.09
2018-09-26T11:18:21.250Z,48.83
2018-09-26T11:20:51.222Z,46.11
2018-09-26T11:23:20.853Z,47.27
2018-09-26T11:25:50.566Z,46.86
2018-09-26T11:28:20.239Z,46.80
2018-09-26T11:30:50.149Z,46.17
2018-09-26T11:33:19.901Z,46.65
2018-09-26T11:35:49.705Z,47.31
2018-09-26T11:38:19.462Z,47.83
2018-09-26T11:40:49.259Z,46.81
2018-09-26T11:43:27.468Z,47.01
2018-09-26T11:45:57.241Z,46.39
2018-09-26T11:48:26.921Z,47.38
2018-09-26T11:51:05.485Z,47.11
2018-09-26T11:53:35.151Z,48.10
2018-09-26T11:56:04.890Z,47.67
2018-09-26T11:58:34.708Z,45.95
2018-09-26T12:01:04.563Z,47.50
2018-09-26T12:03:34.192Z,46.10
2018-09-26T12:06:04.080Z,45.77
2018-09-26T12:08:33.796Z,45.00
2018-09-26T12:11:03.504Z,44.85
2018-09-26T12:13:33.213Z,45.01
2018-09-26T12:16:02.887Z,45.77
2018-09-26T12:18:32.561Z,43.92
2018-09-26T12:21:03.117Z,45.53
2018-09-26T12:23:32.791Z,43.92
2018-09-26T12:26:03.105Z,42.99
2018-09-26T12:28:33.281Z,44.61
2018-09-26T12:31:03.571Z,44.61
2018-09-26T12:33:33.803Z,43.80
2018-09-26T12:36:04.420Z,45.00
2018-09-26T12:38:34.849Z,44.15
2018-09-26T12:41:05.205Z,44.83
2018-09-26T12:43:35.470Z,42.79
2018-09-26T12:46:05.770Z,43.37
2018-09-26T12:48:36.192Z,42.90
2018-09-26T12:51:06.779Z,42.45
2018-09-26T12:53:37.011Z,41.38
2018-09-26T12:56:07.468Z,42.46
2018-09-26T12:58:37.752Z,42.53
2018-09-26T13:01:09.768Z,43.71
2018-09-26T13:03:40.208Z,45.17
2018-09-26T13:06:10.475Z,45.19
2018-09-26T13:08:41.225Z,44.96
2018-09-26T13:11:11.547Z,44.72
2018-09-26T13:13:41.816Z,43.73
2018-09-26T13:16:12.262Z,43.07
2018-09-26T13:18:42.699Z,43.21
2018-09-26T13:21:13.058Z,42.07
2018-09-26T13:23:43.306Z,43.55
2018-09-26T13:26:13.662Z,43.02
2018-09-26T13:28:44.198Z,43.03
2018-09-26T13:31:14.463Z,42.53
2018-09-26T13:33:44.736Z,41.92
2018-09-26T13:36:15.022Z,41.06
2018-09-26T13:38:45.454Z,41.54
2018-09-26T13:41:15.679Z,42.25
2018-09-26T13:43:45.951Z,41.82
2018-09-26T13:46:16.297Z,43.10
2018-09-26T13:48:46.660Z,41.23
2018-09-26T13:51:16.936Z,42.34
2018-09-26T13:53:47.188Z,41.50
2018-09-26T13:56:17.510Z,40.60
2018-09-26T13:58:47.873Z,41.26
2018-09-26T14:01:18.077Z,42.09
2018-09-26T14:03:48.465Z,42.97
2018-09-26T14:06:18.680Z,41.95
2018-09-26T14:08:49.306Z,41.56
2018-09-26T14:11:19.860Z,41.26
2018-09-26T14:13:50.113Z,43.01
2018-09-26T14:16:20.352Z,42.72
2018-09-26T14:18:50.623Z,42.96
2018-09-26T14:21:21.166Z,42.02
2018-09-26T14:23:51.396Z,42.33
2018-09-26T14:26:21.664Z,41.59
2018-09-26T14:28:52.061Z,42.46
2018-09-26T14:31:22.304Z,43.11
2018-09-26T14:33:52.592Z,42.23
2018-09-26T14:36:23.885Z,42.16
2018-09-26T14:38:54.266Z,41.32
2018-09-26T14:41:24.662Z,41.48
2018-09-26T14:43:55.086Z,41.82
2018-09-26T14:46:25.376Z,41.67
2018-09-26T14:48:55.574Z,42.36
2018-09-26T14:51:25.941Z,42.54
2018-09-26T14:53:56.190Z,42.65
2018-09-26T14:56:26.551Z,43.31
2018-09-26T14:58:56.910Z,43.42
2018-09-26T15:01:27.124Z,43.39
2018-09-26T15:03:57.408Z,42.01
2018-09-26T15:06:27.652Z,42.58
2018-09-26T15:08:57.881Z,42.34
2018-09-26T15:11:28.151Z,43.29
2018-09-26T15:13:58.382Z,43.91
2018-09-26T15:16:28.652Z,43.33
2018-09-26T15:18:58.857Z,42.41
2018-09-26T15:21:29.168Z,42.44
2018-09-26T15:23:59.403Z,43.00
2018-09-26T15:26:29.611Z,43.21
2018-09-26T15:28:59.833Z,42.00
2018-09-26T15:31:30.090Z,42.29
2018-09-26T15:34:00.403Z,42.84
2018-09-26T15:36:30.636Z,43.03
2018-09-26T15:39:00.893Z,43.64
2018-09-26T15:41:31.182Z,42.66
2018-09-26T15:44:01.579Z,43.60
2018-09-26T15:46:32.219Z,43.37
2018-09-26T15:49:02.445Z,43.49
2018-09-26T15:51:32.723Z,43.40
2018-09-26T15:54:02.960Z,43.47
2018-09-26T15:56:33.189Z,43.72
2018-09-26T15:59:03.392Z,43.81
2018-09-26T16:01:33.644Z,45.05
2018-09-26T16:04:03.862Z,45.54
2018-09-26T16:06:34.094Z,45.46
2018-09-26T16:09:05.334Z,46.04
2018-09-26T16:11:35.604Z,46.36
2018-09-26T16:14:05.877Z,45.93
2018-09-26T16:16:36.291Z,46.55
2018-09-26T16:19:06.578Z,46.09
2018-09-26T16:21:36.894Z,47.05
2018-09-26T16:24:07.143Z,47.14
2018-09-26T16:26:37.468Z,47.26
2018-09-26T16:29:08.267Z,48.19
2018-09-26T16:31:39.756Z,49.33
2018-09-26T16:34:10.185Z,49.07
2018-09-26T16:36:40.622Z,49.41
2018-09-26T16:39:13.844Z,50.39
2018-09-26T16:41:44.743Z,52.65
2018-09-26T16:44:14.505Z,52.76
2018-09-26T16:46:44.590Z,52.69
2018-09-26T16:49:14.267Z,53.34
2018-09-26T16:51:43.907Z,53.64
2018-09-26T16:54:13.703Z,52.98
2018-09-26T16:56:43.681Z,52.38
2018-09-26T16:59:14.398Z,52.28
2018-09-26T17:01:44.243Z,52.14
2018-09-26T17:04:14.016Z,52.32
2018-09-26T17:06:43.943Z,52.62
2018-09-26T17:09:13.856Z,53.08
2018-09-26T17:11:43.603Z,54.11
2018-09-26T17:14:13.462Z,53.68
2018-09-26T17:16:43.497Z,53.62
2018-09-26T17:19:13.357Z,53.57
2018-09-26T17:22:17.581Z,53.84
2018-09-26T17:24:47.445Z,54.40
2018-09-26T17:27:17.219Z,54.92
2018-09-26T17:29:47.043Z,54.66
2018-09-26T17:32:16.814Z,55.51
2018-09-26T17:34:46.767Z,55.43
2018-09-26T17:37:16.623Z,55.79
2018-09-26T17:39:46.595Z,56.34
2018-09-26T17:42:16.351Z,55.96
2018-09-26T17:44:46.266Z,56.60
2018-09-26T17:47:15.996Z,56.99
2018-09-26T17:49:45.667Z,57.44
2018-09-26T17:52:15.377Z,57.99
2018-09-26T17:54:45.249Z,58.21
2018-09-26T17:57:15.195Z,58.90
2018-09-26T17:59:44.947Z,59.61
2018-09-26T18:02:14.705Z,59.69
2018-09-26T18:04:44.503Z,60.59
2018-09-26T18:07:14.199Z,60.94
2018-09-26T18:09:43.896Z,61.66
2018-09-26T18:12:13.583Z,62.13
2018-09-26T18:14:43.283Z,62.12
2018-09-26T18:17:13.130Z,62.69
2018-09-26T18:19:43.025Z,62.88
2018-09-26T18:22:12.859Z,63.52
2018-09-26T18:24:42.763Z,63.60
2018-09-26T18:27:12.558Z,64.47
2018-09-26T18:29:42.248Z,64.56
2018-09-26T18:32:11.947Z,64.97
2018-09-26T18:34:41.656Z,65.40
2018-09-26T18:37:11.458Z,65.52
2018-09-26T18:39:41.146Z,66.28
2018-09-26T18:42:10.894Z,66.68
2018-09-26T18:44:40.701Z,66.90
2018-09-26T18:47:10.802Z,67.12
2018-09-26T18:49:40.505Z,67.45
2018-09-26T18:52:10.834Z,68.56
2018-09-26T18:54:40.725Z,67.98
2018-09-26T18:57:10.901Z,68.47
2018-09-26T18:59:40.753Z,69.13
2018-09-26T19:02:10.788Z,69.28
2018-09-26T19:04:40.613Z,69.88
2018-09-26T19:07:10.516Z,70.68
2018-09-26T19:09:40.261Z,70.71
2018-09-26T19:12:10.131Z,71.09
2018-09-26T19:14:39.949Z,71.18
2018-09-26T19:17:09.672Z,71.62
2018-09-26T19:19:40.745Z,71.73
2018-09-26T19:22:10.517Z,71.69
2018-09-26T19:24:40.300Z,72.14
2018-09-26T19:27:11.188Z,71.97
2018-09-26T19:29:41.099Z,72.57
2018-09-26T19:32:10.822Z,72.37
2018-09-26T19:34:40.569Z,72.75
2018-09-26T19:37:10.248Z,72.73
2018-09-26T19:39:41.390Z,72.91
2018-09-26T19:42:11.220Z,72.67
2018-09-26T19:44:40.976Z,72.75
2018-09-26T19:47:10.716Z,74.02
2018-09-26T19:49:40.633Z,74.04
2018-09-26T19:52:10.334Z,74.35
2018-09-26T19:54:40.272Z,74.22
2018-09-26T19:57:09.948Z,74.23
2018-09-26T19:59:40.389Z,74.34
2018-09-26T20:02:10.193Z,74.11
2018-09-26T20:04:40.920Z,74.29
2018-09-26T20:07:10.614Z,74.65
2018-09-26T20:09:40.313Z,74.73
2018-09-26T20:12:10.108Z,75.37
2018-09-26T20:14:39.835Z,75.55
2018-09-26T20:17:09.553Z,76.13
2018-09-26T20:19:40.048Z,76.13
2018-09-26T20:22:09.960Z,76.45
2018-09-26T20:24:39.757Z,76.49
2018-09-26T20:27:09.698Z,77.08
2018-09-26T20:29:39.711Z,76.87
2018-09-26T20:32:09.492Z,77.11
2018-09-26T20:34:39.388Z,76.98
2018-09-26T20:37:09.138Z,76.89
2018-09-26T20:39:38.934Z,76.85
2018-09-26T20:42:09.154Z,77.28
2018-09-26T20:44:38.978Z,77.37
2018-09-26T20:47:08.648Z,76.84
2018-09-26T20:49:38.279Z,76.89
2018-09-26T20:52:08.229Z,77.56
2018-09-26T20:54:37.936Z,77.48
2018-09-26T20:57:07.696Z,77.63
2018-09-26T20:59:37.688Z,77.75
2018-09-26T21:02:07.488Z,77.84
2018-09-26T21:04:37.166Z,77.91
2018-09-26T21:07:07.363Z,78.44
2018-09-26T21:09:37.215Z,78.32
2018-09-26T21:12:06.903Z,78.67
2018-09-26T21:14:36.578Z,79.25
2018-09-26T21:17:06.287Z,79.26
2018-09-26T21:19:35.979Z,79.12
2018-09-26T21:22:05.659Z,79.18
2018-09-26T21:24:35.355Z,79.50
2018-09-26T21:27:05.038Z,79.33
2018-09-26T21:29:34.677Z,79.49
2018-09-26T21:32:04.716Z,79.34
2018-09-26T21:34:34.436Z,79.32
2018-09-26T21:37:04.088Z,79.72
2018-09-26T21:39:33.759Z,79.91
2018-09-26T21:42:03.403Z,79.65
2018-09-26T21:44:34.069Z,80.12
2018-09-26T21:47:03.943Z,80.08
2018-09-26T21:49:33.581Z,79.82
2018-09-26T21:52:03.242Z,79.99
2018-09-26T21:54:32.933Z,79.87
2018-09-26T21:57:02.756Z,79.79
2018-09-26T21:59:32.444Z,79.87
2018-09-26T22:02:02.868Z,79.75
2018-09-26T22:04:33.229Z,79.67
2018-09-26T22:07:03.863Z,79.90
2018-09-26T22:09:34.165Z,79.40
2018-09-26T22:12:04.511Z,79.28
2018-09-26T22:14:34.800Z,79.20
2018-09-26T22:17:05.127Z,78.98
2018-09-26T22:19:35.406Z,78.93
2018-09-26T22:22:05.695Z,78.89
2018-09-26T22:24:36.041Z,78.75
2018-09-26T22:27:06.423Z,78.51
2018-09-26T22:29:36.712Z,78.81
2018-09-26T22:32:07.009Z,79.73
2018-09-26T22:34:37.337Z,79.87
2018-09-26T22:37:07.692Z,80.45
2018-09-26T22:39:38.056Z,80.81
2018-09-26T22:42:08.367Z,81.31
2018-09-26T22:44:38.686Z,81.61
2018-09-26T22:47:08.948Z,82.09
2018-09-26T22:49:39.247Z,81.97
2018-09-26T22:52:09.572Z,82.17
2018-09-26T22:54:39.908Z,82.27
2018-09-26T22:57:10.231Z,82.02
2018-09-26T22:59:40.735Z,82.16
2018-09-26T23:02:11.073Z,82.34
2018-09-26T23:04:41.345Z,82.48
2018-09-26T23:07:11.937Z,82.68
2018-09-26T23:09:42.498Z,82.57
2018-09-26T23:12:12.885Z,82.56
2018-09-26T23:14:43.203Z,82.65
2018-09-26T23:17:13.483Z,82.88
2018-09-26T23:19:43.771Z,82.43
2018-09-26T23:22:14.044Z,82.51
2018-09-26T23:24:44.309Z,82.76
2018-09-26T23:27:14.615Z,82.72
2018-09-26T23:29:44.899Z,82.64
2018-09-26T23:32:15.149Z,82.11
2018-09-26T23:34:45.493Z,82.38
2018-09-26T23:37:15.766Z,82.71
2018-09-26T23:39:46.074Z,82.29
2018-09-26T23:42:16.457Z,82.69
2018-09-26T23:44:46.743Z,82.86
2018-09-26T23:47:17.015Z,82.77
2018-09-26T23:49:47.323Z,82.85
2018-09-26T23:52:17.829Z,82.46
2018-09-26T23:54:48.227Z,82.54
2018-09-26T23:57:18.585Z,82.92
2018-09-26T23:59:49.719Z,83.02
